Aeroporto :
LOGIN :

Iscrizione | Disclaimer

   EN    FR    IT 

 










Sommario :    VFR   VFR Marginale   IFR   IFR Intensivo   IFR Molto Intensivo
Visibilità : 
Base nubi : 
>= 8 km
>= 3000ft
5 / 8 km
1000 / 3000 ft
1500m / 5 km
500 / 1000 ft
800 / 1500m
200 / 500 ft
< 800m
< 200 ft
Simboli :   Temporali  Nebbia  Neve Forte  Precipitazioni Forti  Vento > 20 kt
SIGMETs :   Varie  Temporali  Ghiacco  Turbolenza  Onda orograficha  Ceneri Vulcaniche






- Altitudine del aeroporto : 353 ft
- Codice IATA : CND


LRCK - Constanta

ULTIMO METAR :
  • 310930Z 29011KT 9999 SCT046 11/07 Q1017 TEMPO 5000 -RA

METARs OBSOLETI :
  • 310900Z 29011KT 9999 FEW049 11/06 Q1017 TEMPO 5000 -RA
  • 310830Z 28008KT CAVOK 10/06 Q1017 NOSIG
  • 310800Z 28009KT CAVOK 10/06 Q1018 NOSIG
  • 310730Z 28007KT CAVOK 09/07 Q1018 NOSIG
  • 310700Z 27007KT CAVOK 09/07 Q1018 NOSIG

TAF TAF LRCK
Valido dal 31 a 06 ore il 01 a 06 ore UTC


310500Z 3106/0106 29008KT CAVOK
BECMG 3109/3111 5000 -RA BKN015 OVC030
PROB40
TEMPO 3112/3116 3000 SHRA BKN010 SCT025CB OVC030
BECMG 3118/3120 01010KT 9999 NSW SCT010 BKN040
TEMPO 0100/0106 32016G26KT 5000 -DZ BKN010 OVC020



MetMap, La meteo Aeronautica in un colpo d'occhio ! - Copyright ORBIFLY Dicembre 2007 - Disclaimer

ORBIFLY MET'MAP TEAM :

Programmazione e sviluppo : Alexandra Zaïnal
Concezione : Baudouin d'Aumeries
Aiuto per la programmazione : Marc-Olivier Méhu
Supporto tecnico e logistico : Manuel Goepfert
Aiuto per la traduzione : Arnaldo La Scala

Contatto : metmap@orbifly.com




FONTI E CREDITI :

   NOAA